createdAt,value
2019-04-01T00:00:34.455Z,29.27
2019-04-01T00:03:04.329Z,30.07
2019-04-01T00:05:33.221Z,26.47
2019-04-01T00:08:02.099Z,25.70
2019-04-01T00:10:31.103Z,27.40
2019-04-01T00:12:59.993Z,26.83
2019-04-01T00:15:28.886Z,28.40
2019-04-01T00:17:57.981Z,28.60
2019-04-01T00:20:26.874Z,29.17
2019-04-01T00:22:55.894Z,27.30
2019-04-01T00:25:25.065Z,29.13
2019-04-01T00:27:54.058Z,28.30
2019-04-01T00:30:22.947Z,31.37
2019-04-01T00:32:51.943Z,29.37
2019-04-01T00:35:20.936Z,25.97
2019-04-01T00:37:49.830Z,30.13
2019-04-01T00:40:18.773Z,26.67
2019-04-01T00:42:49.454Z,33.80
2019-04-01T00:45:19.965Z,28.20
2019-04-01T00:47:48.977Z,29.50
2019-04-01T00:50:17.870Z,25.43
2019-04-01T00:52:46.761Z,29.40
2019-04-01T00:55:15.652Z,27.53
2019-04-01T00:57:44.542Z,29.50
2019-04-01T01:00:14.765Z,29.63
2019-04-01T01:02:43.655Z,28.80
2019-04-01T01:05:12.547Z,23.67
2019-04-01T01:07:41.642Z,31.13
2019-04-01T01:10:11.058Z,23.77
2019-04-01T01:12:40.040Z,31.53
2019-04-01T01:15:09.324Z,27.17
2019-04-01T01:17:38.333Z,26.77
2019-04-01T01:20:07.946Z,27.07
2019-04-01T01:22:37.037Z,27.50
2019-04-01T01:25:06.934Z,23.43
2019-04-01T01:27:35.847Z,26.27
2019-04-01T01:30:07.398Z,25.77
2019-04-01T01:32:36.263Z,25.67
2019-04-01T01:35:05.897Z,26.07
2019-04-01T01:37:34.891Z,26.63
2019-04-01T01:40:04.296Z,26.03
2019-04-01T01:42:33.390Z,28.77
2019-04-01T01:45:02.281Z,25.60
2019-04-01T01:47:31.252Z,28.10
2019-04-01T01:50:00.237Z,28.90
2019-04-01T01:52:29.466Z,25.40
2019-04-01T01:54:58.336Z,27.23
2019-04-01T01:57:27.249Z,26.80
2019-04-01T01:59:56.141Z,26.57
2019-04-01T02:02:25.131Z,22.37
2019-04-01T02:04:54.029Z,23.93
2019-04-01T02:07:22.916Z,24.30
2019-04-01T02:09:51.787Z,27.27
2019-04-01T02:12:20.697Z,24.67
2019-04-01T02:14:49.589Z,25.33
2019-04-01T02:17:18.481Z,25.93
2019-04-01T02:19:47.326Z,28.47
2019-04-01T02:22:16.161Z,27.17
2019-04-01T02:24:45.032Z,27.20
2019-04-01T02:27:13.861Z,26.60
2019-04-01T02:29:42.731Z,27.63
2019-04-01T02:32:11.565Z,28.93
2019-04-01T02:34:40.427Z,25.87
2019-04-01T02:37:09.259Z,27.03
2019-04-01T02:39:38.134Z,28.33
2019-04-01T02:42:06.956Z,27.07
2019-04-01T02:44:35.831Z,26.30
2019-04-01T02:47:04.660Z,22.57
2019-04-01T02:49:33.539Z,26.57
2019-04-01T02:52:02.373Z,27.47
2019-04-01T02:54:31.252Z,27.40
2019-04-01T02:57:00.078Z,23.63
2019-04-01T02:59:28.953Z,25.07
2019-04-01T03:01:57.791Z,27.30
2019-04-01T03:04:26.672Z,25.57
2019-04-01T03:06:55.494Z,28.47
2019-04-01T03:09:24.382Z,24.20
2019-04-01T03:11:53.199Z,23.43
2019-04-01T03:14:22.068Z,26.63
2019-04-01T03:16:50.935Z,25.63
2019-04-01T03:19:19.769Z,24.93
2019-04-01T03:21:48.642Z,25.93
2019-04-01T03:24:17.512Z,25.90
2019-04-01T03:26:46.341Z,26.57
2019-04-01T03:29:15.219Z,24.33
2019-04-01T03:31:44.132Z,26.33
2019-04-01T03:34:12.956Z,29.43
2019-04-01T03:36:42.126Z,25.73
2019-04-01T03:39:11.000Z,24.80
2019-04-01T03:41:39.833Z,29.10
2019-04-01T03:44:08.711Z,26.07
2019-04-01T03:46:37.582Z,24.60
2019-04-01T03:49:06.545Z,22.17
2019-04-01T03:51:35.582Z,23.40
2019-04-01T03:54:04.455Z,24.93
2019-04-01T03:56:33.288Z,26.23
2019-04-01T03:59:02.172Z,24.93
2019-04-01T04:01:31.030Z,23.43
2019-04-01T04:03:59.849Z,23.17
2019-04-01T04:06:28.812Z,25.97
2019-04-01T04:09:01.616Z,25.93
2019-04-01T04:11:28.167Z,21.27
2019-04-01T04:13:57.051Z,23.87
2019-04-01T04:16:25.911Z,26.40
2019-04-01T04:18:54.739Z,24.93
2019-04-01T04:21:24.243Z,24.53
2019-04-01T04:23:53.471Z,26.37
2019-04-01T04:26:22.303Z,26.37
2019-04-01T04:28:51.179Z,26.73
2019-04-01T04:31:20.042Z,25.83
2019-04-01T04:33:48.877Z,24.30
2019-04-01T04:36:17.826Z,19.73
2019-04-01T04:38:46.782Z,23.93
2019-04-01T04:41:16.266Z,21.03
2019-04-01T04:43:45.118Z,27.43
2019-04-01T04:46:13.990Z,22.77
2019-04-01T04:48:42.819Z,23.10
2019-04-01T04:51:11.688Z,23.80
2019-04-01T04:53:40.563Z,25.53
2019-04-01T04:56:09.395Z,21.20
2019-04-01T04:58:38.265Z,24.47
2019-04-01T05:01:07.137Z,23.83
2019-04-01T05:03:35.964Z,24.93
2019-04-01T05:06:04.836Z,26.47
2019-04-01T05:08:33.712Z,25.50
2019-04-01T05:11:02.547Z,24.37
2019-04-01T05:13:31.415Z,20.70
2019-04-01T05:16:00.287Z,25.37
2019-04-01T05:18:29.122Z,21.87
2019-04-01T05:20:59.595Z,24.53
2019-04-01T05:23:29.366Z,21.63
2019-04-01T05:25:59.099Z,23.37
2019-04-01T05:28:29.979Z,25.40
2019-04-01T05:31:00.451Z,24.20
2019-04-01T05:33:29.571Z,25.40
2019-04-01T05:35:58.437Z,20.37
2019-04-01T05:38:27.407Z,25.13
2019-04-01T05:40:56.243Z,22.70
2019-04-01T05:43:25.411Z,26.73
2019-04-01T05:45:54.270Z,26.90
2019-04-01T05:48:24.671Z,26.47
2019-04-01T05:50:53.748Z,23.90
2019-04-01T05:53:22.619Z,24.33
2019-04-01T05:55:51.447Z,25.90
2019-04-01T05:58:20.324Z,25.70
2019-04-01T06:00:51.164Z,25.10
2019-04-01T06:03:20.415Z,26.87
2019-04-01T06:05:49.379Z,21.13
2019-04-01T06:08:18.247Z,20.23
2019-04-01T06:10:47.079Z,22.73
2019-04-01T06:13:16.249Z,23.07
2019-04-01T06:15:45.218Z,18.40
2019-04-01T06:18:26.242Z,22.77
2019-04-01T06:20:55.118Z,17.57
2019-04-01T06:23:23.947Z,20.87
2019-04-01T06:25:53.311Z,17.23
2019-04-01T06:28:22.182Z,14.83
2019-04-01T06:30:52.591Z,16.13
2019-04-01T06:33:21.459Z,13.93
2019-04-01T06:35:50.323Z,17.53
2019-04-01T06:38:19.257Z,13.60
2019-04-01T06:40:48.619Z,15.90
2019-04-01T06:43:17.484Z,14.83
2019-04-01T06:45:46.306Z,16.63
2019-04-01T06:48:15.174Z,13.23
2019-04-01T06:50:44.048Z,15.77
2019-04-01T06:53:12.873Z,13.87
2019-04-01T06:55:41.835Z,13.67
2019-04-01T06:58:12.084Z,11.17
2019-04-01T07:00:41.131Z,13.50
2019-04-01T07:03:10.091Z,14.67
2019-04-01T07:05:38.964Z,14.97
2019-04-01T07:08:07.996Z,11.23
2019-04-01T07:10:36.852Z,12.57
2019-04-01T07:13:05.723Z,10.67
2019-04-01T07:15:34.885Z,12.77
2019-04-01T07:18:03.713Z,13.93
2019-04-01T07:20:32.575Z,9.80
2019-04-01T07:23:01.503Z,10.77
2019-04-01T07:25:33.836Z,12.77
2019-04-01T07:28:00.994Z,12.77
2019-04-01T07:30:29.815Z,12.20
2019-04-01T07:32:58.688Z,11.47
2019-04-01T07:35:27.564Z,11.20
2019-04-01T07:37:56.488Z,11.43
2019-04-01T07:40:25.351Z,10.43
2019-04-01T07:42:54.219Z,8.73
2019-04-01T07:45:23.048Z,10.83
2019-04-01T07:47:51.924Z,10.80
2019-04-01T07:50:20.784Z,10.17
2019-04-01T07:52:49.598Z,10.63
2019-04-01T07:55:18.469Z,12.27
2019-04-01T07:57:47.329Z,11.17
2019-04-01T08:00:16.454Z,9.33
2019-04-01T08:02:48.818Z,11.27
2019-04-01T08:05:16.518Z,8.90
2019-04-01T08:07:45.343Z,9.73
2019-04-01T08:10:14.616Z,8.70
2019-04-01T08:12:43.479Z,10.27
2019-04-01T08:15:12.444Z,7.60
2019-04-01T08:17:41.307Z,8.77
2019-04-01T08:20:10.284Z,10.87
2019-04-01T08:22:39.116Z,8.03
2019-04-01T08:25:08.378Z,9.23
2019-04-01T08:27:49.271Z,8.40
2019-04-01T08:30:18.237Z,8.60
2019-04-01T08:32:47.107Z,9.40
2019-04-01T08:35:16.135Z,9.77
2019-04-01T08:37:45.004Z,9.37
2019-04-01T08:40:14.074Z,9.77
2019-04-01T08:42:43.007Z,10.97
2019-04-01T08:45:12.676Z,9.43
2019-04-01T08:47:41.544Z,9.90
2019-04-01T08:50:10.635Z,9.90
2019-04-01T08:52:39.509Z,9.67
2019-04-01T08:55:08.327Z,9.20
2019-04-01T08:57:37.182Z,9.27
2019-04-01T09:00:07.527Z,10.37
2019-04-01T09:02:36.392Z,11.87
2019-04-01T09:05:06.123Z,10.53
2019-04-01T09:07:34.999Z,9.50
2019-04-01T09:10:04.166Z,9.20
2019-04-01T09:12:45.282Z,11.50
2019-04-01T09:15:14.230Z,9.83
2019-04-01T09:17:43.073Z,10.17
2019-04-01T09:20:11.934Z,11.77
2019-04-01T09:22:40.806Z,9.80
2019-04-01T09:25:27.871Z,10.60
2019-04-01T09:27:56.847Z,10.20
2019-04-01T09:30:25.680Z,12.37
2019-04-01T09:32:54.552Z,10.40
2019-04-01T09:35:23.442Z,11.10
2019-04-01T09:37:52.316Z,11.60
2019-04-01T09:40:21.148Z,13.83
2019-04-01T09:42:50.020Z,9.47
2019-04-01T09:45:18.846Z,11.03
2019-04-01T09:47:47.708Z,11.47
2019-04-01T09:50:16.538Z,10.80
2019-04-01T09:52:45.416Z,8.90
2019-04-01T09:55:14.646Z,10.23
2019-04-01T09:57:43.512Z,9.83
2019-04-01T10:00:12.856Z,12.77
2019-04-01T10:02:41.684Z,14.27
2019-04-01T10:05:10.758Z,10.50
2019-04-01T10:07:39.634Z,12.03
2019-04-01T10:10:12.227Z,12.60
2019-04-01T10:12:41.052Z,11.43
2019-04-01T10:15:10.033Z,12.00
2019-04-01T10:17:38.864Z,11.47
2019-04-01T10:20:08.733Z,14.03
2019-04-01T10:22:37.563Z,13.17
2019-04-01T10:25:06.738Z,11.93
2019-04-01T10:27:35.572Z,11.90
2019-04-01T10:30:07.171Z,13.40
2019-04-01T10:32:36.007Z,13.30
2019-04-01T10:35:06.981Z,11.50
2019-04-01T10:37:35.810Z,12.73
2019-04-01T10:40:06.975Z,12.73
2019-04-01T10:42:35.919Z,15.00
2019-04-01T10:45:09.504Z,12.97
2019-04-01T10:47:38.388Z,13.37
2019-04-01T10:50:08.327Z,13.70
2019-04-01T10:52:37.268Z,15.13
2019-04-01T10:55:07.053Z,14.37
2019-04-01T10:57:35.919Z,14.53
2019-04-01T11:00:07.570Z,12.17
2019-04-01T11:02:36.436Z,15.83
2019-04-01T11:05:07.770Z,14.87
2019-04-01T11:07:36.597Z,12.73
2019-04-01T11:10:11.302Z,15.70
2019-04-01T11:12:38.717Z,12.30
2019-04-01T11:15:08.088Z,13.43
2019-04-01T11:17:36.974Z,12.40
2019-04-01T11:20:09.484Z,13.30
2019-04-01T11:22:38.405Z,12.97
2019-04-01T11:25:08.312Z,16.03
2019-04-01T11:27:37.371Z,11.93
2019-04-01T11:30:08.024Z,13.47
2019-04-01T11:32:37.936Z,13.77
2019-04-01T11:35:08.007Z,12.07
2019-04-01T11:37:36.907Z,11.50
2019-04-01T11:40:11.131Z,16.07
2019-04-01T11:42:40.392Z,14.20
2019-04-01T11:45:08.948Z,12.83
2019-04-01T11:47:37.816Z,13.10
2019-04-01T11:50:07.896Z,13.87
2019-04-01T11:52:38.079Z,14.30
2019-04-01T11:55:09.121Z,13.57
2019-04-01T11:57:38.534Z,14.53
2019-04-01T12:00:12.738Z,12.40
2019-04-01T12:02:41.692Z,12.90
2019-04-01T12:05:12.254Z,13.60
2019-04-01T12:07:41.168Z,13.17
2019-04-01T12:10:10.634Z,14.70
2019-04-01T12:12:39.536Z,15.33
2019-04-01T12:15:12.075Z,12.67
2019-04-01T12:17:41.519Z,13.33
2019-04-01T12:20:10.025Z,14.13
2019-04-01T12:22:40.596Z,11.03
2019-04-01T12:25:09.659Z,13.67
2019-04-01T12:27:50.519Z,12.80
2019-04-01T12:30:19.495Z,11.23
2019-04-01T12:32:49.604Z,11.70
2019-04-01T12:35:19.303Z,13.13
2019-04-01T12:37:48.488Z,11.77
2019-04-01T12:40:17.354Z,12.63
2019-04-01T12:42:46.617Z,14.27
2019-04-01T12:45:15.972Z,10.90
2019-04-01T12:47:44.808Z,12.57
2019-04-01T12:50:13.878Z,12.37
2019-04-01T12:52:42.903Z,12.80
2019-04-01T12:55:11.957Z,13.53
2019-04-01T12:57:40.788Z,10.77
2019-04-01T13:00:11.996Z,11.03
2019-04-01T13:02:40.815Z,11.43
2019-04-01T13:05:09.679Z,11.60
2019-04-01T13:07:38.515Z,12.03
2019-04-01T13:10:07.894Z,13.77
2019-04-01T13:12:36.798Z,11.23
2019-04-01T13:15:06.078Z,10.97
2019-04-01T13:17:35.067Z,11.60
2019-04-01T13:20:05.215Z,12.97
2019-04-01T13:22:34.104Z,12.13
2019-04-01T13:25:05.658Z,11.27
2019-04-01T13:27:33.525Z,13.10
2019-04-01T13:30:02.419Z,13.03
2019-04-01T13:32:31.308Z,12.50
2019-04-01T13:35:00.301Z,10.87
2019-04-01T13:37:29.173Z,13.00
2019-04-01T13:39:58.084Z,13.67
2019-04-01T13:42:26.908Z,12.53
2019-04-01T13:44:55.772Z,9.77
2019-04-01T13:47:24.607Z,15.57
2019-04-01T13:49:53.475Z,11.07
2019-04-01T13:52:22.311Z,10.57
2019-04-01T13:54:51.161Z,9.40
2019-04-01T13:57:20.032Z,11.90
2019-04-01T13:59:49.854Z,12.27
2019-04-01T14:02:19.378Z,11.30
2019-04-01T14:04:48.207Z,11.60
2019-04-01T14:07:17.075Z,11.77
2019-04-01T14:09:45.903Z,9.30
2019-04-01T14:12:14.933Z,14.07
2019-04-01T14:14:43.859Z,12.10
2019-04-01T14:17:12.810Z,9.30
2019-04-01T14:19:41.707Z,10.80
2019-04-01T14:22:10.872Z,11.37
2019-04-01T14:24:42.518Z,10.40
2019-04-01T14:27:11.805Z,13.43
2019-04-01T14:29:41.634Z,11.10
2019-04-01T14:32:10.556Z,11.13
2019-04-01T14:34:40.081Z,12.77
2019-04-01T14:37:09.964Z,10.50
2019-04-01T14:39:40.138Z,10.90
2019-04-01T14:42:10.170Z,11.37
2019-04-01T14:44:39.047Z,15.07
2019-04-01T14:47:09.209Z,11.27
2019-04-01T14:49:38.417Z,10.17
2019-04-01T14:52:08.898Z,12.00
2019-04-01T14:54:37.864Z,12.30
2019-04-01T14:57:08.286Z,11.27
2019-04-01T14:59:37.353Z,12.13
2019-04-01T15:02:06.675Z,10.57
2019-04-01T15:04:36.021Z,9.37
2019-04-01T15:07:04.913Z,11.40
2019-04-01T15:09:36.063Z,8.73
2019-04-01T15:12:04.938Z,9.67
2019-04-01T15:14:34.685Z,13.40
2019-04-01T15:17:06.353Z,11.10
2019-04-01T15:19:35.330Z,11.63
2019-04-01T15:22:04.167Z,10.83
2019-04-01T15:24:33.049Z,10.27
2019-04-01T15:27:02.122Z,11.90
2019-04-01T15:29:30.947Z,11.83
2019-04-01T15:31:59.826Z,10.40
2019-04-01T15:34:28.660Z,8.87
2019-04-01T15:36:59.282Z,10.47
2019-04-01T15:39:28.314Z,11.63
2019-04-01T15:41:57.312Z,10.87
2019-04-01T15:44:29.187Z,9.80
2019-04-01T15:46:56.730Z,9.93
2019-04-01T15:49:25.621Z,10.73
2019-04-01T15:51:54.624Z,10.80
2019-04-01T15:54:23.507Z,10.33
2019-04-01T15:56:52.397Z,12.17
2019-04-01T15:59:21.288Z,13.93
2019-04-01T16:01:50.159Z,11.73
2019-04-01T16:04:19.173Z,11.57
2019-04-01T16:06:48.167Z,10.70
2019-04-01T16:09:17.161Z,9.50
2019-04-01T16:11:48.062Z,11.93
2019-04-01T16:14:19.333Z,10.00
2019-04-01T16:16:47.292Z,10.83
2019-04-01T16:19:16.309Z,11.63
2019-04-01T16:21:45.200Z,13.87
2019-04-01T16:24:14.255Z,10.63
2019-04-01T16:26:44.317Z,13.97
2019-04-01T16:29:13.206Z,11.50
2019-04-01T16:31:42.200Z,12.00
2019-04-01T16:34:11.094Z,10.10
2019-04-01T16:36:39.959Z,12.73
2019-04-01T16:39:09.995Z,11.10
2019-04-01T16:41:39.094Z,12.13
2019-04-01T16:44:44.760Z,11.17
2019-04-01T16:47:14.558Z,12.30
2019-04-01T16:49:43.630Z,9.70
2019-04-01T16:52:15.313Z,11.80
2019-04-01T16:54:46.047Z,14.27
2019-04-01T16:57:15.024Z,14.17
2019-04-01T16:59:43.944Z,12.77
2019-04-01T17:02:18.089Z,15.97
2019-04-01T17:04:46.159Z,11.63
2019-04-01T17:07:15.095Z,11.67
2019-04-01T17:09:43.931Z,12.30
2019-04-01T17:12:12.766Z,13.47
2019-04-01T17:14:43.253Z,10.83
2019-04-01T17:17:12.102Z,11.57
2019-04-01T17:19:40.943Z,12.73
2019-04-01T17:22:11.386Z,11.50
2019-04-01T17:24:40.632Z,12.03
2019-04-01T17:27:12.515Z,12.93
2019-04-01T17:29:43.920Z,11.63
2019-04-01T17:32:12.789Z,10.23
2019-04-01T17:34:41.618Z,12.90
2019-04-01T17:37:10.796Z,10.80
2019-04-01T17:39:39.623Z,16.80
2019-04-01T17:42:08.499Z,11.23
2019-04-01T17:44:37.334Z,9.83
2019-04-01T17:47:06.593Z,13.70
2019-04-01T17:49:35.581Z,13.50
2019-04-01T17:52:04.571Z,13.27
2019-04-01T17:54:33.389Z,12.63
2019-04-01T17:57:02.264Z,11.73
2019-04-01T17:59:31.088Z,11.83
2019-04-01T18:01:59.929Z,12.57
2019-04-01T18:04:28.799Z,10.67
2019-04-01T18:06:58.393Z,10.33
2019-04-01T18:09:27.305Z,9.80
2019-04-01T18:11:56.123Z,10.60
2019-04-01T18:14:24.993Z,10.27
2019-04-01T18:16:53.827Z,11.50
2019-04-01T18:19:22.707Z,8.30
2019-04-01T18:21:51.541Z,11.10
2019-04-01T18:24:20.402Z,8.80
2019-04-01T18:26:49.347Z,11.73
2019-04-01T18:29:18.422Z,8.90
2019-04-01T18:31:47.256Z,11.13
2019-04-01T18:34:17.280Z,10.70
2019-04-01T18:36:46.212Z,11.40
2019-04-01T18:39:15.350Z,9.03
2019-04-01T18:41:45.576Z,9.13
2019-04-01T18:44:14.807Z,10.83
2019-04-01T18:46:43.917Z,10.00
2019-04-01T18:49:12.851Z,9.03
2019-04-01T18:51:41.739Z,10.97
2019-04-01T18:54:10.591Z,8.77
2019-04-01T18:56:42.139Z,8.73
2019-04-01T18:59:11.011Z,8.90
2019-04-01T19:01:39.847Z,14.83
2019-04-01T19:04:08.715Z,8.93
2019-04-01T19:06:37.693Z,8.97
2019-04-01T19:09:09.314Z,7.97
2019-04-01T19:11:38.494Z,8.80
2019-04-01T19:14:07.391Z,8.43
2019-04-01T19:16:36.300Z,9.00
2019-04-01T19:19:05.273Z,9.43
2019-04-01T19:21:34.160Z,9.20
2019-04-01T19:24:06.434Z,7.83
2019-04-01T19:26:33.606Z,10.90
2019-04-01T19:29:02.498Z,7.93
2019-04-01T19:31:31.391Z,9.97
2019-04-01T19:34:00.384Z,8.50
2019-04-01T19:36:30.144Z,7.00
2019-04-01T19:38:59.394Z,8.23
2019-04-01T19:41:28.239Z,8.70
2019-04-01T19:43:57.075Z,7.40
2019-04-01T19:46:25.947Z,9.50
2019-04-01T19:48:54.809Z,6.50
2019-04-01T19:51:23.645Z,7.23
2019-04-01T19:53:53.272Z,8.10
2019-04-01T19:56:22.484Z,8.07
2019-04-01T19:58:51.310Z,6.67
2019-04-01T20:01:20.587Z,9.10
2019-04-01T20:03:49.446Z,8.93
2019-04-01T20:06:18.529Z,7.83
2019-04-01T20:08:49.724Z,8.47
2019-04-01T20:11:18.249Z,9.10
2019-04-01T20:13:47.076Z,9.57
2019-04-01T20:16:16.042Z,7.37
2019-04-01T20:18:57.425Z,9.37
2019-04-01T20:21:28.102Z,9.77
2019-04-01T20:23:56.846Z,9.30
2019-04-01T20:26:25.710Z,9.13
2019-04-01T20:28:54.731Z,9.53
2019-04-01T20:31:23.723Z,12.07
2019-04-01T20:33:52.545Z,7.53
2019-04-01T20:36:28.408Z,8.57
2019-04-01T20:38:51.902Z,10.83
2019-04-01T20:41:21.627Z,10.30
2019-04-01T20:44:03.015Z,8.30
2019-04-01T20:46:31.876Z,8.00
2019-04-01T20:49:02.009Z,8.43
2019-04-01T20:51:31.074Z,10.67
2019-04-01T20:53:59.901Z,10.13
2019-04-01T20:56:28.815Z,10.30
2019-04-01T20:58:57.680Z,8.53
2019-04-01T21:01:26.598Z,11.20
2019-04-01T21:03:55.596Z,9.90
2019-04-01T21:06:24.484Z,10.77
2019-04-01T21:08:53.374Z,10.27
2019-04-01T21:11:22.266Z,10.27
2019-04-01T21:14:22.670Z,12.40
2019-04-01T21:16:51.793Z,7.27
2019-04-01T21:19:22.117Z,8.27
2019-04-01T21:21:51.189Z,9.13
2019-04-01T21:24:20.186Z,10.17
2019-04-01T21:26:49.098Z,9.40
2019-04-01T21:29:18.090Z,8.63
2019-04-01T21:31:47.179Z,10.10
2019-04-01T21:34:16.990Z,11.13
2019-04-01T21:36:47.011Z,10.23
2019-04-01T21:39:15.891Z,9.30
2019-04-01T21:41:44.808Z,8.23
2019-04-01T21:44:13.668Z,8.73
2019-04-01T21:46:43.216Z,7.87
2019-04-01T21:49:14.137Z,7.47
2019-04-01T21:51:42.977Z,8.80
2019-04-01T21:54:11.843Z,7.40
2019-04-01T21:56:40.663Z,8.23
2019-04-01T21:59:10.623Z,8.83
2019-04-01T22:01:39.527Z,8.30
2019-04-01T22:04:08.382Z,8.43
2019-04-01T22:06:39.012Z,6.97
2019-04-01T22:09:09.512Z,8.20
2019-04-01T22:11:38.460Z,8.80
2019-04-01T22:14:07.350Z,8.60
2019-04-01T22:16:36.242Z,7.60
2019-04-01T22:19:05.351Z,8.30
2019-04-01T22:21:34.681Z,8.03
2019-04-01T22:24:04.283Z,7.77
2019-04-01T22:26:33.551Z,8.63
2019-04-01T22:29:02.438Z,8.43
2019-04-01T22:31:33.024Z,8.07
2019-04-01T22:34:01.971Z,9.13
2019-04-01T22:36:31.473Z,8.50
2019-04-01T22:39:00.460Z,7.50
2019-04-01T22:41:29.450Z,7.37
2019-04-01T22:43:58.839Z,6.90
2019-04-01T22:46:27.700Z,7.57
2019-04-01T22:48:56.519Z,9.97
2019-04-01T22:51:25.380Z,8.60
2019-04-01T22:53:54.240Z,8.10
2019-04-01T22:56:23.060Z,7.03
2019-04-01T22:58:51.924Z,8.13
2019-04-01T23:01:21.874Z,6.90
2019-04-01T23:03:50.807Z,9.33
2019-04-01T23:06:19.698Z,6.70
2019-04-01T23:08:48.589Z,9.40
2019-04-01T23:11:18.608Z,7.27
2019-04-01T23:13:49.228Z,8.57
2019-04-01T23:16:18.035Z,7.07
2019-04-01T23:18:47.127Z,7.93
2019-04-01T23:21:16.021Z,9.00
2019-04-01T23:23:44.907Z,6.93
2019-04-01T23:26:13.798Z,6.33
2019-04-01T23:28:42.691Z,6.93
2019-04-01T23:31:11.586Z,6.13
2019-04-01T23:33:40.471Z,7.23
2019-04-01T23:36:09.438Z,6.30
2019-04-01T23:38:38.357Z,7.20
2019-04-01T23:41:07.247Z,9.40
2019-04-01T23:47:04.525Z,6.37
2019-04-01T23:49:33.415Z,9.17
2019-04-01T23:52:02.413Z,8.80
2019-04-01T23:54:31.631Z,7.67
2019-04-01T23:57:00.682Z,9.03
2019-04-01T23:59:29.697Z,10.80
